Saint Anne, Illinois
Current Conditions -  °F | °C
As of 5:55 PM on Saturday 22 Nov 2014 (Local Time) from KIKK Reporting Station
Overcast Overcast  
Wind Chill: 50°   Ceiling: 6000
Heat Index: 50°   Visibility: 10mi
Dew Point: 46°   Wind: 14mph
Humidity: 85%   Direction: 200°SSW
Pressure: 29.92"   Gusts: NA
Location:  41.03°N, 87.71°W
Report Text: KIKK 222355Z AUTO 20012KT 10SM OVC060 10/08 A2992 RMK AO2 T01000075 10117 20085
Loading
Personal Weather Stations






























Interactive Weather Map New forecast layout! Learn more

10-Day Weather Forecast

Advertisements
Track Severe Weather on mobile